createdAt,value
2019-01-25T00:01:52.311Z,1.00
2019-01-25T00:04:57.285Z,0.90
2019-01-25T00:08:02.564Z,0.90
2019-01-25T00:11:08.258Z,0.80
2019-01-25T00:14:13.485Z,0.70
2019-01-25T00:17:18.309Z,0.70
2019-01-25T00:20:23.302Z,0.60
2019-01-25T00:23:28.266Z,0.60
2019-01-25T00:26:33.444Z,0.50
2019-01-25T00:29:38.262Z,0.50
2019-01-25T00:32:43.330Z,0.40
2019-01-25T00:35:48.387Z,0.40
2019-01-25T00:38:53.341Z,0.40
2019-01-25T00:41:58.347Z,0.40
2019-01-25T00:45:03.392Z,0.40
2019-01-25T00:48:08.472Z,0.40
2019-01-25T00:51:13.725Z,0.40
2019-01-25T00:54:18.557Z,0.40
2019-01-25T00:57:23.653Z,0.40
2019-01-25T01:00:29.224Z,0.40
2019-01-25T01:03:34.444Z,0.30
2019-01-25T01:06:39.782Z,0.10
2019-01-25T01:09:44.709Z,0.10
2019-01-25T01:12:50.002Z,0.10
2019-01-25T01:15:55.071Z,0.10
2019-01-25T01:19:00.036Z,0.10
2019-01-25T01:22:05.324Z,0.10
2019-01-25T01:25:11.016Z,0.10
2019-01-25T01:28:15.962Z,0.10
2019-01-25T01:31:21.053Z,0.00
2019-01-25T01:34:26.134Z,0.00
2019-01-25T01:37:31.050Z,0.00
2019-01-25T01:40:36.835Z,0.00
2019-01-25T01:43:41.901Z,0.10
2019-01-25T01:46:46.637Z,0.00
2019-01-25T01:49:51.357Z,0.00
2019-01-25T01:52:56.058Z,0.00
2019-01-25T01:56:01.314Z,-0.10
2019-01-25T01:59:06.405Z,0.00
2019-01-25T02:02:11.581Z,-0.10
2019-01-25T02:05:17.417Z,-0.10
2019-01-25T02:08:22.485Z,-0.10
2019-01-25T02:11:27.603Z,-0.30
2019-01-25T02:14:32.651Z,-0.40
2019-01-25T02:17:37.916Z,-0.30
2019-01-25T02:20:43.044Z,-0.30
2019-01-25T02:23:47.993Z,-0.30
2019-01-25T02:26:53.102Z,-0.30
2019-01-25T02:29:58.090Z,-0.40
2019-01-25T02:33:03.302Z,-0.30
2019-01-25T02:36:08.470Z,-0.40
2019-01-25T02:39:13.653Z,-0.40
2019-01-25T02:42:18.571Z,-0.50
2019-01-25T02:45:23.584Z,-0.50
2019-01-25T02:48:28.913Z,-0.50
2019-01-25T02:51:33.827Z,-0.60
2019-01-25T02:54:41.769Z,-0.60
2019-01-25T02:57:46.805Z,-0.70
2019-01-25T03:00:51.649Z,-0.70
2019-01-25T03:03:56.598Z,-0.70
2019-01-25T03:07:01.690Z,-0.70
2019-01-25T03:10:09.119Z,-0.80
2019-01-25T03:13:14.115Z,-0.80
2019-01-25T03:16:19.217Z,-0.90
2019-01-25T03:19:24.204Z,-1.00
2019-01-25T03:22:29.363Z,-1.20
2019-01-25T03:25:34.423Z,-1.20
2019-01-25T03:28:39.646Z,-1.20
2019-01-25T03:31:44.662Z,-1.20
2019-01-25T03:34:49.735Z,-1.10
2019-01-25T03:37:54.827Z,-1.10
2019-01-25T03:40:59.995Z,-1.20
2019-01-25T03:44:05.352Z,-1.20
2019-01-25T03:47:10.493Z,-1.30
2019-01-25T03:50:18.398Z,-1.30
2019-01-25T03:53:23.338Z,-1.30
2019-01-25T03:56:28.319Z,-1.30
2019-01-25T03:59:33.288Z,-1.30
2019-01-25T04:02:38.159Z,-1.40
2019-01-25T04:05:43.072Z,-1.40
2019-01-25T04:08:48.229Z,-1.40
2019-01-25T04:11:53.428Z,-1.50
2019-01-25T04:14:58.395Z,-1.50
2019-01-25T04:18:03.336Z,-1.50
2019-01-25T04:21:08.688Z,-1.50
2019-01-25T04:24:13.789Z,-1.50
2019-01-25T04:27:18.766Z,-1.40
2019-01-25T04:30:25.762Z,-1.50
2019-01-25T04:33:30.853Z,-1.50
2019-01-25T04:36:35.848Z,-1.50
2019-01-25T04:39:40.939Z,-1.50
2019-01-25T04:42:46.219Z,-1.60
2019-01-25T04:45:52.245Z,-1.50
2019-01-25T04:48:57.643Z,-1.60
2019-01-25T04:52:02.777Z,-1.60
2019-01-25T04:55:19.883Z,-1.70
2019-01-25T04:58:25.156Z,-1.70
2019-01-25T05:01:30.209Z,-1.70
2019-01-25T05:04:37.417Z,-1.70
2019-01-25T05:07:42.401Z,-1.80
2019-01-25T05:10:47.714Z,-1.80
2019-01-25T05:13:52.697Z,-1.90
2019-01-25T05:16:57.570Z,-1.80
2019-01-25T05:20:02.778Z,-1.80
2019-01-25T05:23:09.101Z,-1.80
2019-01-25T05:26:14.286Z,-1.80
2019-01-25T05:29:22.658Z,-1.70
2019-01-25T05:32:27.655Z,-1.80
2019-01-25T05:35:36.688Z,-1.80
2019-01-25T05:38:46.751Z,-1.80
2019-01-25T05:41:54.071Z,-1.80
2019-01-25T05:44:58.956Z,-1.80
2019-01-25T05:48:04.083Z,-1.80
2019-01-25T05:51:09.454Z,-1.80
2019-01-25T05:54:14.690Z,-1.70
2019-01-25T05:57:19.522Z,-1.70
2019-01-25T06:00:28.889Z,-1.70
2019-01-25T06:03:33.769Z,-1.60
2019-01-25T06:06:38.640Z,-1.60
2019-01-25T06:09:43.540Z,-1.50
2019-01-25T06:12:53.326Z,-1.50
2019-01-25T06:15:58.346Z,-1.50
2019-01-25T06:19:03.473Z,-1.40
2019-01-25T06:22:08.408Z,-1.40
2019-01-25T06:25:13.674Z,-1.40
2019-01-25T06:28:18.501Z,-1.40
2019-01-25T06:31:23.506Z,-1.30
2019-01-25T06:34:28.540Z,-1.30
2019-01-25T06:37:34.031Z,-1.30
2019-01-25T06:40:38.857Z,-1.20
2019-01-25T06:43:43.930Z,-1.20
2019-01-25T06:46:48.839Z,-1.20
2019-01-25T06:49:53.811Z,-1.30
2019-01-25T06:53:00.324Z,-1.30
2019-01-25T06:56:06.856Z,-1.30
2019-01-25T06:59:24.076Z,-1.30
2019-01-25T07:02:33.831Z,-1.20
2019-01-25T07:05:38.964Z,-1.10
2019-01-25T07:08:43.858Z,-1.10
2019-01-25T07:11:51.663Z,-1.20
2019-01-25T07:14:55.786Z,-1.20
2019-01-25T07:18:00.735Z,-1.20
2019-01-25T07:21:05.999Z,-1.20
2019-01-25T07:24:11.776Z,-1.10
2019-01-25T07:27:16.773Z,-1.10
2019-01-25T07:30:21.697Z,-1.10
2019-01-25T07:33:26.564Z,-1.10
2019-01-25T07:36:31.661Z,-1.00
2019-01-25T07:39:36.840Z,-1.20
2019-01-25T07:42:41.845Z,-1.10
2019-01-25T07:45:47.722Z,-1.00
2019-01-25T07:48:52.549Z,-1.00
2019-01-25T07:51:57.597Z,-0.90
2019-01-25T07:55:02.821Z,-0.80
2019-01-25T07:58:07.882Z,-0.70
2019-01-25T08:01:13.142Z,-0.60
2019-01-25T08:04:18.084Z,-0.50
2019-01-25T08:07:22.989Z,-0.40
2019-01-25T08:10:27.963Z,-0.50
2019-01-25T08:13:32.920Z,-0.40
2019-01-25T08:16:37.834Z,-0.10
2019-01-25T08:19:42.749Z,0.10
2019-01-25T08:22:47.832Z,0.20
2019-01-25T08:25:52.886Z,0.40
2019-01-25T08:28:57.849Z,0.50
2019-01-25T08:32:02.894Z,0.70
2019-01-25T08:35:09.753Z,0.80
2019-01-25T08:38:14.691Z,1.00
2019-01-25T08:41:19.591Z,1.20
2019-01-25T08:44:24.705Z,1.30
2019-01-25T08:47:29.790Z,1.50
2019-01-25T08:50:35.283Z,1.70
2019-01-25T08:53:41.486Z,2.00
2019-01-25T08:56:46.779Z,2.20
2019-01-25T08:59:51.775Z,2.30
2019-01-25T09:02:57.057Z,2.20
2019-01-25T09:06:02.178Z,2.20
2019-01-25T09:09:10.499Z,2.10
2019-01-25T09:12:23.060Z,2.10
2019-01-25T09:15:24.755Z,2.00
2019-01-25T09:18:29.941Z,2.10
2019-01-25T09:21:34.869Z,2.20
2019-01-25T09:24:40.036Z,2.10
2019-01-25T09:27:44.925Z,1.90
2019-01-25T09:30:50.036Z,1.70
2019-01-25T09:33:54.938Z,1.70
2019-01-25T09:36:59.912Z,1.70
2019-01-25T09:40:06.293Z,1.30
2019-01-25T09:43:11.308Z,1.20
2019-01-25T09:46:16.117Z,1.10
2019-01-25T09:49:21.103Z,1.60
2019-01-25T09:52:26.083Z,1.60
2019-01-25T09:55:31.249Z,1.80
2019-01-25T09:58:38.551Z,1.70
2019-01-25T10:01:43.636Z,2.00
2019-01-25T10:04:48.622Z,1.60
2019-01-25T10:07:53.580Z,1.50
2019-01-25T10:11:00.848Z,1.70
2019-01-25T10:14:05.786Z,1.50
2019-01-25T10:17:10.633Z,1.80
2019-01-25T10:20:15.815Z,2.20
2019-01-25T10:23:21.097Z,2.20
2019-01-25T10:26:26.194Z,2.40
2019-01-25T10:29:31.376Z,3.60
2019-01-25T10:32:36.365Z,5.90
2019-01-25T10:35:41.633Z,8.40
2019-01-25T10:38:46.651Z,11.00
2019-01-25T10:41:51.716Z,13.40
2019-01-25T10:44:56.982Z,15.50
2019-01-25T10:48:01.952Z,17.00
2019-01-25T10:51:07.495Z,18.00
2019-01-25T10:54:12.512Z,17.00
2019-01-25T10:57:17.476Z,15.00
2019-01-25T11:00:22.937Z,13.30
2019-01-25T11:03:29.873Z,11.80
2019-01-25T11:06:36.390Z,10.30
2019-01-25T11:09:41.432Z,9.60
2019-01-25T11:12:46.420Z,11.90
2019-01-25T11:15:51.518Z,13.40
2019-01-25T11:18:56.793Z,15.40
2019-01-25T11:22:01.746Z,16.80
2019-01-25T11:25:08.648Z,18.40
2019-01-25T11:28:13.590Z,17.50
2019-01-25T11:31:18.582Z,19.30
2019-01-25T11:34:23.854Z,19.60
2019-01-25T11:37:28.923Z,21.00
2019-01-25T11:40:36.649Z,20.50
2019-01-25T11:43:41.630Z,19.60
2019-01-25T11:46:47.212Z,20.10
2019-01-25T11:49:52.152Z,19.80
2019-01-25T11:52:57.399Z,20.60
2019-01-25T11:56:02.291Z,18.80
2019-01-25T11:59:07.436Z,19.30
2019-01-25T12:02:12.333Z,20.00
2019-01-25T12:05:18.429Z,19.00
2019-01-25T12:08:23.451Z,18.00
2019-01-25T12:11:28.587Z,19.00
2019-01-25T12:14:33.720Z,20.00
2019-01-25T12:17:38.927Z,20.40
2019-01-25T12:20:43.783Z,21.20
2019-01-25T12:23:48.914Z,22.20
2019-01-25T12:26:54.097Z,23.20
2019-01-25T12:29:59.133Z,23.80
2019-01-25T12:33:07.385Z,23.80
2019-01-25T12:36:12.551Z,22.80
2019-01-25T12:39:17.458Z,22.70
2019-01-25T12:42:22.629Z,22.60
2019-01-25T12:45:28.533Z,22.30
2019-01-25T12:48:33.983Z,22.20
2019-01-25T12:51:51.937Z,21.80
2019-01-25T12:54:57.037Z,22.00
2019-01-25T12:58:02.124Z,20.10
2019-01-25T13:01:07.490Z,19.60
2019-01-25T13:04:12.608Z,20.10
2019-01-25T13:07:17.657Z,19.90
2019-01-25T13:10:23.033Z,20.10
2019-01-25T13:13:31.686Z,21.20
2019-01-25T13:16:34.520Z,21.50
2019-01-25T13:19:39.553Z,20.70
2019-01-25T13:22:44.504Z,19.50
2019-01-25T13:25:49.596Z,19.30
2019-01-25T13:28:54.615Z,20.00
2019-01-25T13:31:59.677Z,20.50
2019-01-25T13:35:05.868Z,21.00
2019-01-25T13:38:10.556Z,21.60
2019-01-25T13:41:15.389Z,20.80
2019-01-25T13:44:20.313Z,20.40
2019-01-25T13:47:25.436Z,20.00
2019-01-25T13:50:30.878Z,19.70
2019-01-25T13:53:36.239Z,20.10
2019-01-25T13:56:41.266Z,20.60
2019-01-25T13:59:46.399Z,20.50
2019-01-25T14:02:51.446Z,20.60
2019-01-25T14:05:56.881Z,20.70
2019-01-25T14:09:01.908Z,21.00
2019-01-25T14:12:09.345Z,21.10
2019-01-25T14:15:14.668Z,20.60
2019-01-25T14:18:19.658Z,20.40
2019-01-25T14:21:24.747Z,19.60
2019-01-25T14:24:29.685Z,18.50
2019-01-25T14:27:34.896Z,17.30
2019-01-25T14:30:42.465Z,15.40
2019-01-25T14:33:47.594Z,13.90
2019-01-25T14:36:52.385Z,12.50
2019-01-25T14:39:57.156Z,10.90
2019-01-25T14:43:02.006Z,9.60
2019-01-25T14:46:06.950Z,8.90
2019-01-25T14:49:11.963Z,8.10
2019-01-25T14:52:17.202Z,7.50
2019-01-25T14:55:22.542Z,7.20
2019-01-25T14:58:27.609Z,6.70
2019-01-25T15:01:32.628Z,6.20
2019-01-25T15:04:37.859Z,6.00
2019-01-25T15:07:42.784Z,5.60
2019-01-25T15:10:47.944Z,5.40
2019-01-25T15:13:52.960Z,5.20
2019-01-25T15:16:57.953Z,4.90
2019-01-25T15:20:03.030Z,4.90
2019-01-25T15:23:08.411Z,4.70
2019-01-25T15:26:13.468Z,4.50
2019-01-25T15:29:18.592Z,4.40
2019-01-25T15:32:23.626Z,4.30
2019-01-25T15:35:29.016Z,4.20
2019-01-25T15:38:33.987Z,4.10
2019-01-25T15:41:38.985Z,3.90
2019-01-25T15:44:43.773Z,3.70
2019-01-25T15:47:49.248Z,3.60
2019-01-25T15:50:54.189Z,3.50
2019-01-25T15:53:59.568Z,3.30
2019-01-25T15:57:04.609Z,3.00
2019-01-25T16:00:13.944Z,3.00
2019-01-25T16:03:19.163Z,2.90
2019-01-25T16:06:24.153Z,2.70
2019-01-25T16:09:29.266Z,2.70
2019-01-25T16:12:34.644Z,2.70
2019-01-25T16:15:39.650Z,2.70
2019-01-25T16:18:44.786Z,2.60
2019-01-25T16:21:49.928Z,2.50
2019-01-25T16:24:54.927Z,2.40
2019-01-25T16:28:04.170Z,2.30
2019-01-25T16:31:09.300Z,2.20
2019-01-25T16:34:14.351Z,2.20
2019-01-25T16:37:19.301Z,2.10
2019-01-25T16:40:24.628Z,1.80
2019-01-25T16:43:29.813Z,1.40
2019-01-25T16:46:34.845Z,1.40
2019-01-25T16:49:39.821Z,1.50
2019-01-25T16:52:44.918Z,1.60
2019-01-25T16:55:50.160Z,1.60
2019-01-25T16:58:55.069Z,1.60
2019-01-25T17:01:59.957Z,1.60
2019-01-25T17:05:08.201Z,1.60
2019-01-25T17:08:13.401Z,1.40
2019-01-25T17:11:18.406Z,1.20
2019-01-25T17:14:23.549Z,1.20
2019-01-25T17:17:29.002Z,1.20
2019-01-25T17:20:34.009Z,1.30
2019-01-25T17:23:39.071Z,1.30
2019-01-25T17:26:44.038Z,1.30
2019-01-25T17:29:49.117Z,1.30
2019-01-25T17:32:54.547Z,1.30
2019-01-25T17:35:59.575Z,1.30
2019-01-25T17:39:06.852Z,1.40
2019-01-25T17:42:11.937Z,1.40
2019-01-25T17:45:17.448Z,1.30
2019-01-25T17:48:22.582Z,1.30
2019-01-25T17:51:27.708Z,1.40
2019-01-25T17:54:32.917Z,1.40
2019-01-25T17:57:38.630Z,1.40
2019-01-25T18:00:54.273Z,1.50
2019-01-25T18:03:59.665Z,1.50
2019-01-25T18:07:04.816Z,1.50
2019-01-25T18:10:12.856Z,1.60
2019-01-25T18:13:17.827Z,1.50
2019-01-25T18:16:22.980Z,1.50
2019-01-25T18:19:27.952Z,1.50
2019-01-25T18:22:33.271Z,1.60
2019-01-25T18:26:02.012Z,1.60
2019-01-25T18:29:10.462Z,1.60
2019-01-25T18:32:15.322Z,1.50
2019-01-25T18:35:21.117Z,1.50
2019-01-25T18:38:26.245Z,1.60
2019-01-25T18:41:31.526Z,1.60
2019-01-25T18:44:36.630Z,1.60
2019-01-25T18:47:44.903Z,1.60
2019-01-25T18:50:50.023Z,1.60
2019-01-25T18:53:55.354Z,1.50
2019-01-25T18:57:00.388Z,1.60
2019-01-25T19:00:06.694Z,1.50
2019-01-25T19:03:11.808Z,1.50
2019-01-25T19:06:16.852Z,1.50
2019-01-25T19:09:21.813Z,1.50
2019-01-25T19:12:26.951Z,1.50
2019-01-25T19:15:32.337Z,1.50
2019-01-25T19:18:37.458Z,1.50
2019-01-25T19:21:42.360Z,1.50
2019-01-25T19:24:47.333Z,1.40
2019-01-25T19:27:52.332Z,1.40
2019-01-25T19:31:00.461Z,1.30
2019-01-25T19:34:06.298Z,1.30
2019-01-25T19:37:11.421Z,1.40
2019-01-25T19:40:17.343Z,1.40
2019-01-25T19:43:22.462Z,1.30
2019-01-25T19:46:27.475Z,1.30
2019-01-25T19:49:32.599Z,1.30
2019-01-25T19:52:37.705Z,1.30
2019-01-25T19:55:42.696Z,1.20
2019-01-25T19:58:47.745Z,1.30
2019-01-25T20:01:52.812Z,1.30
2019-01-25T20:04:57.921Z,1.30
2019-01-25T20:08:03.215Z,1.30
2019-01-25T20:11:08.193Z,1.30
2019-01-25T20:14:13.244Z,1.30
2019-01-25T20:17:18.496Z,1.30
2019-01-25T20:20:25.652Z,1.20
2019-01-25T20:23:30.945Z,1.20
2019-01-25T20:26:38.720Z,1.20
2019-01-25T20:29:43.889Z,1.20
2019-01-25T20:32:48.936Z,1.20
2019-01-25T20:35:54.022Z,1.20
2019-01-25T20:38:59.066Z,1.30
2019-01-25T20:42:04.237Z,1.30
2019-01-25T20:45:12.391Z,1.40
2019-01-25T20:48:17.593Z,1.30
2019-01-25T20:51:23.051Z,1.30
2019-01-25T20:54:28.092Z,1.30
2019-01-25T20:57:33.241Z,1.30
2019-01-25T21:00:39.328Z,1.20
2019-01-25T21:03:44.445Z,1.20
2019-01-25T21:06:49.489Z,1.10
2019-01-25T21:09:54.610Z,1.10
2019-01-25T21:12:59.941Z,1.10
2019-01-25T21:16:05.063Z,1.00
2019-01-25T21:19:09.958Z,1.00
2019-01-25T21:22:14.954Z,1.00
2019-01-25T21:25:20.157Z,1.00
2019-01-25T21:28:25.491Z,1.00
2019-01-25T21:31:30.762Z,1.00
2019-01-25T21:34:35.676Z,0.90
2019-01-25T21:37:40.645Z,0.90
2019-01-25T21:40:45.682Z,0.90
2019-01-25T21:43:50.463Z,0.80
2019-01-25T21:46:55.510Z,0.70
2019-01-25T21:50:00.631Z,0.60
2019-01-25T21:53:06.236Z,0.50
2019-01-25T21:56:11.356Z,0.40
2019-01-25T21:59:16.381Z,0.40
2019-01-25T22:02:21.460Z,0.30
2019-01-25T22:05:26.958Z,0.30
2019-01-25T22:08:31.933Z,0.20
2019-01-25T22:11:36.778Z,0.20
2019-01-25T22:14:42.025Z,0.10
2019-01-25T22:17:47.496Z,0.00
2019-01-25T22:20:52.400Z,0.00
2019-01-25T22:23:57.432Z,0.00
2019-01-25T22:27:02.404Z,0.00
2019-01-25T22:30:09.921Z,0.00
2019-01-25T22:33:14.862Z,0.00
2019-01-25T22:36:19.861Z,0.00
2019-01-25T22:39:24.790Z,0.00
2019-01-25T22:42:29.707Z,0.00
2019-01-25T22:45:34.585Z,0.10
2019-01-25T22:48:39.648Z,0.20
2019-01-25T22:51:44.931Z,0.10
2019-01-25T22:54:49.977Z,0.00
2019-01-25T22:57:55.250Z,0.00
2019-01-25T23:01:14.313Z,0.00
2019-01-25T23:04:53.856Z,0.00
2019-01-25T23:07:58.669Z,0.00
2019-01-25T23:11:04.033Z,-0.10
2019-01-25T23:14:09.936Z,-0.10
2019-01-25T23:17:15.137Z,0.00
2019-01-25T23:20:20.614Z,0.00
2019-01-25T23:23:28.078Z,0.10
2019-01-25T23:26:33.209Z,0.10
2019-01-25T23:29:38.865Z,0.10
2019-01-25T23:32:43.976Z,0.20
2019-01-25T23:35:49.087Z,0.20
2019-01-25T23:38:55.497Z,0.20
2019-01-25T23:42:05.300Z,0.20
2019-01-25T23:45:11.941Z,0.20
2019-01-25T23:48:16.965Z,0.30
2019-01-25T23:51:23.067Z,0.40
2019-01-25T23:54:28.136Z,0.40
2019-01-25T23:57:33.062Z,0.40
